sensor_id;sensor_type;location;lat;lon;timestamp;P1;durP1;ratioP1;P2;durP2;ratioP2
9288;SDS011;4683;50.864;12.086;2023-02-08T00:01:28;49.30;;;30.27;;
9288;SDS011;4683;50.864;12.086;2023-02-08T00:03:57;48.60;;;30.60;;
9288;SDS011;4683;50.864;12.086;2023-02-08T00:06:26;48.43;;;28.80;;
9288;SDS011;4683;50.864;12.086;2023-02-08T00:08:55;51.60;;;30.90;;
9288;SDS011;4683;50.864;12.086;2023-02-08T00:11:23;45.07;;;30.10;;
9288;SDS011;4683;50.864;12.086;2023-02-08T00:13:51;49.10;;;31.20;;
9288;SDS011;4683;50.864;12.086;2023-02-08T00:16:19;46.07;;;29.57;;
9288;SDS011;4683;50.864;12.086;2023-02-08T00:18:48;45.00;;;30.00;;
9288;SDS011;4683;50.864;12.086;2023-02-08T00:21:17;48.47;;;30.40;;
9288;SDS011;4683;50.864;12.086;2023-02-08T00:23:47;50.93;;;32.87;;
9288;SDS011;4683;50.864;12.086;2023-02-08T00:26:15;48.50;;;30.60;;
9288;SDS011;4683;50.864;12.086;2023-02-08T00:28:44;50.17;;;31.40;;
9288;SDS011;4683;50.864;12.086;2023-02-08T00:31:13;50.53;;;32.43;;
9288;SDS011;4683;50.864;12.086;2023-02-08T00:33:41;46.57;;;30.80;;
9288;SDS011;4683;50.864;12.086;2023-02-08T00:36:10;46.20;;;30.30;;
9288;SDS011;4683;50.864;12.086;2023-02-08T00:38:39;48.90;;;31.43;;
9288;SDS011;4683;50.864;12.086;2023-02-08T00:41:08;46.87;;;30.30;;
9288;SDS011;4683;50.864;12.086;2023-02-08T00:43:39;50.10;;;31.43;;
9288;SDS011;4683;50.864;12.086;2023-02-08T00:46:08;49.00;;;31.10;;
9288;SDS011;4683;50.864;12.086;2023-02-08T00:48:36;49.90;;;31.03;;
9288;SDS011;4683;50.864;12.086;2023-02-08T00:51:05;45.30;;;29.73;;
9288;SDS011;4683;50.864;12.086;2023-02-08T00:53:38;46.93;;;30.23;;
9288;SDS011;4683;50.864;12.086;2023-02-08T00:56:11;44.20;;;29.67;;
9288;SDS011;4683;50.864;12.086;2023-02-08T00:58:41;46.83;;;31.27;;
9288;SDS011;4683;50.864;12.086;2023-02-08T01:01:10;49.60;;;30.77;;
9288;SDS011;4683;50.864;12.086;2023-02-08T01:03:40;46.43;;;30.70;;
9288;SDS011;4683;50.864;12.086;2023-02-08T01:06:12;43.93;;;28.63;;
9288;SDS011;4683;50.864;12.086;2023-02-08T01:08:42;45.77;;;29.67;;
9288;SDS011;4683;50.864;12.086;2023-02-08T01:11:16;48.80;;;29.60;;
9288;SDS011;4683;50.864;12.086;2023-02-08T01:13:47;49.20;;;29.30;;
9288;SDS011;4683;50.864;12.086;2023-02-08T01:16:16;46.77;;;29.60;;
9288;SDS011;4683;50.864;12.086;2023-02-08T01:18:49;45.90;;;29.90;;
9288;SDS011;4683;50.864;12.086;2023-02-08T01:21:21;46.50;;;30.13;;
9288;SDS011;4683;50.864;12.086;2023-02-08T01:23:52;45.93;;;29.37;;
9288;SDS011;4683;50.864;12.086;2023-02-08T01:26:22;43.17;;;28.53;;
9288;SDS011;4683;50.864;12.086;2023-02-08T01:28:52;44.77;;;29.87;;
9288;SDS011;4683;50.864;12.086;2023-02-08T01:31:22;41.80;;;28.50;;
9288;SDS011;4683;50.864;12.086;2023-02-08T01:37:34;47.57;;;29.23;;
9288;SDS011;4683;50.864;12.086;2023-02-08T01:40:02;47.37;;;30.30;;
9288;SDS011;4683;50.864;12.086;2023-02-08T01:42:33;43.80;;;29.27;;
9288;SDS011;4683;50.864;12.086;2023-02-08T01:45:23;43.60;;;29.80;;
9288;SDS011;4683;50.864;12.086;2023-02-08T01:48:00;45.87;;;29.20;;
9288;SDS011;4683;50.864;12.086;2023-02-08T01:50:35;50.20;;;30.93;;
9288;SDS011;4683;50.864;12.086;2023-02-08T01:53:12;47.37;;;29.87;;
9288;SDS011;4683;50.864;12.086;2023-02-08T01:55:41;44.00;;;28.30;;
9288;SDS011;4683;50.864;12.086;2023-02-08T01:58:16;44.20;;;28.53;;
9288;SDS011;4683;50.864;12.086;2023-02-08T02:00:46;45.90;;;28.87;;
9288;SDS011;4683;50.864;12.086;2023-02-08T02:03:16;43.67;;;29.23;;
9288;SDS011;4683;50.864;12.086;2023-02-08T02:05:49;40.23;;;27.00;;
9288;SDS011;4683;50.864;12.086;2023-02-08T02:08:22;44.00;;;29.00;;
9288;SDS011;4683;50.864;12.086;2023-02-08T02:10:50;45.10;;;29.73;;
9288;SDS011;4683;50.864;12.086;2023-02-08T02:13:21;43.70;;;27.83;;
9288;SDS011;4683;50.864;12.086;2023-02-08T02:15:52;42.20;;;26.83;;
9288;SDS011;4683;50.864;12.086;2023-02-08T02:18:22;45.17;;;29.17;;
9288;SDS011;4683;50.864;12.086;2023-02-08T02:24:17;43.87;;;28.10;;
9288;SDS011;4683;50.864;12.086;2023-02-08T02:31:03;43.23;;;29.00;;
9288;SDS011;4683;50.864;12.086;2023-02-08T02:34:42;41.07;;;27.27;;
9288;SDS011;4683;50.864;12.086;2023-02-08T02:37:18;43.67;;;29.23;;
9288;SDS011;4683;50.864;12.086;2023-02-08T02:40:07;41.43;;;28.13;;
9288;SDS011;4683;50.864;12.086;2023-02-08T02:42:46;49.20;;;30.00;;
9288;SDS011;4683;50.864;12.086;2023-02-08T02:45:46;44.53;;;28.37;;
9288;SDS011;4683;50.864;12.086;2023-02-08T02:48:25;46.03;;;29.33;;
9288;SDS011;4683;50.864;12.086;2023-02-08T02:51:04;47.13;;;29.13;;
9288;SDS011;4683;50.864;12.086;2023-02-08T02:53:40;42.40;;;27.17;;
9288;SDS011;4683;50.864;12.086;2023-02-08T02:56:17;49.27;;;28.53;;
9288;SDS011;4683;50.864;12.086;2023-02-08T02:58:49;43.43;;;29.20;;
9288;SDS011;4683;50.864;12.086;2023-02-08T03:01:22;42.93;;;28.87;;
9288;SDS011;4683;50.864;12.086;2023-02-08T03:03:53;41.87;;;27.37;;
9288;SDS011;4683;50.864;12.086;2023-02-08T03:06:27;43.07;;;27.03;;
9288;SDS011;4683;50.864;12.086;2023-02-08T03:09:15;44.37;;;28.87;;
9288;SDS011;4683;50.864;12.086;2023-02-08T03:12:21;45.87;;;29.33;;
9288;SDS011;4683;50.864;12.086;2023-02-08T03:15:09;40.03;;;28.33;;
9288;SDS011;4683;50.864;12.086;2023-02-08T03:17:53;44.63;;;27.87;;
9288;SDS011;4683;50.864;12.086;2023-02-08T03:20:32;42.73;;;27.20;;
9288;SDS011;4683;50.864;12.086;2023-02-08T03:23:08;43.40;;;28.73;;
9288;SDS011;4683;50.864;12.086;2023-02-08T03:25:46;45.13;;;28.47;;
9288;SDS011;4683;50.864;12.086;2023-02-08T03:28:20;42.13;;;28.83;;
9288;SDS011;4683;50.864;12.086;2023-02-08T03:30:54;42.97;;;27.37;;
9288;SDS011;4683;50.864;12.086;2023-02-08T03:33:32;43.27;;;26.80;;
9288;SDS011;4683;50.864;12.086;2023-02-08T03:36:07;41.37;;;26.27;;
9288;SDS011;4683;50.864;12.086;2023-02-08T03:38:48;42.37;;;27.17;;
9288;SDS011;4683;50.864;12.086;2023-02-08T03:41:21;34.67;;;25.67;;
9288;SDS011;4683;50.864;12.086;2023-02-08T03:43:55;42.07;;;26.60;;
9288;SDS011;4683;50.864;12.086;2023-02-08T03:46:28;43.67;;;27.50;;
9288;SDS011;4683;50.864;12.086;2023-02-08T03:49:02;41.93;;;26.40;;
9288;SDS011;4683;50.864;12.086;2023-02-08T03:51:34;44.70;;;27.67;;
9288;SDS011;4683;50.864;12.086;2023-02-08T03:54:07;42.50;;;27.00;;
9288;SDS011;4683;50.864;12.086;2023-02-08T03:56:44;42.20;;;27.93;;
9288;SDS011;4683;50.864;12.086;2023-02-08T03:59:20;42.03;;;27.10;;
9288;SDS011;4683;50.864;12.086;2023-02-08T04:01:54;37.87;;;26.13;;
9288;SDS011;4683;50.864;12.086;2023-02-08T04:04:27;39.67;;;27.47;;
9288;SDS011;4683;50.864;12.086;2023-02-08T04:07:00;41.07;;;27.63;;
9288;SDS011;4683;50.864;12.086;2023-02-08T04:09:30;45.00;;;27.47;;
9288;SDS011;4683;50.864;12.086;2023-02-08T04:11:59;40.40;;;27.27;;
9288;SDS011;4683;50.864;12.086;2023-02-08T04:14:27;41.13;;;27.47;;
9288;SDS011;4683;50.864;12.086;2023-02-08T04:16:55;42.80;;;26.90;;
9288;SDS011;4683;50.864;12.086;2023-02-08T04:19:24;43.10;;;28.10;;
9288;SDS011;4683;50.864;12.086;2023-02-08T04:21:52;49.77;;;33.33;;
9288;SDS011;4683;50.864;12.086;2023-02-08T04:24:20;44.50;;;30.60;;
9288;SDS011;4683;50.864;12.086;2023-02-08T04:26:51;46.77;;;29.27;;
9288;SDS011;4683;50.864;12.086;2023-02-08T04:29:19;44.07;;;30.30;;
9288;SDS011;4683;50.864;12.086;2023-02-08T04:31:47;44.53;;;28.63;;
9288;SDS011;4683;50.864;12.086;2023-02-08T04:34:17;50.40;;;30.83;;
9288;SDS011;4683;50.864;12.086;2023-02-08T04:36:46;43.07;;;29.80;;
9288;SDS011;4683;50.864;12.086;2023-02-08T04:39:14;43.77;;;28.93;;
9288;SDS011;4683;50.864;12.086;2023-02-08T04:41:43;40.07;;;26.87;;
9288;SDS011;4683;50.864;12.086;2023-02-08T04:44:12;45.17;;;27.87;;
9288;SDS011;4683;50.864;12.086;2023-02-08T04:46:41;42.57;;;26.87;;
9288;SDS011;4683;50.864;12.086;2023-02-08T04:49:09;42.20;;;27.33;;
9288;SDS011;4683;50.864;12.086;2023-02-08T04:51:38;41.57;;;27.27;;
9288;SDS011;4683;50.864;12.086;2023-02-08T04:54:06;41.73;;;26.97;;
9288;SDS011;4683;50.864;12.086;2023-02-08T04:56:35;40.20;;;27.50;;
9288;SDS011;4683;50.864;12.086;2023-02-08T04:59:03;38.93;;;25.53;;
9288;SDS011;4683;50.864;12.086;2023-02-08T05:01:33;36.20;;;24.80;;
9288;SDS011;4683;50.864;12.086;2023-02-08T05:04:01;40.03;;;26.53;;
9288;SDS011;4683;50.864;12.086;2023-02-08T05:06:30;39.30;;;25.30;;
9288;SDS011;4683;50.864;12.086;2023-02-08T05:08:59;39.67;;;26.10;;
9288;SDS011;4683;50.864;12.086;2023-02-08T05:11:27;40.03;;;27.03;;
9288;SDS011;4683;50.864;12.086;2023-02-08T05:13:56;41.93;;;26.80;;
9288;SDS011;4683;50.864;12.086;2023-02-08T05:16:24;42.37;;;25.40;;
9288;SDS011;4683;50.864;12.086;2023-02-08T05:18:55;37.77;;;25.67;;
9288;SDS011;4683;50.864;12.086;2023-02-08T05:21:24;41.70;;;26.47;;
9288;SDS011;4683;50.864;12.086;2023-02-08T05:23:52;40.63;;;27.13;;
9288;SDS011;4683;50.864;12.086;2023-02-08T05:26:21;36.33;;;24.43;;
9288;SDS011;4683;50.864;12.086;2023-02-08T05:28:49;38.83;;;24.90;;
9288;SDS011;4683;50.864;12.086;2023-02-08T05:31:19;37.73;;;25.13;;
9288;SDS011;4683;50.864;12.086;2023-02-08T05:33:51;37.70;;;24.93;;
9288;SDS011;4683;50.864;12.086;2023-02-08T05:36:21;37.77;;;24.77;;
9288;SDS011;4683;50.864;12.086;2023-02-08T05:38:50;37.50;;;25.30;;
9288;SDS011;4683;50.864;12.086;2023-02-08T05:41:19;36.93;;;23.57;;
9288;SDS011;4683;50.864;12.086;2023-02-08T05:43:47;37.43;;;23.63;;
9288;SDS011;4683;50.864;12.086;2023-02-08T05:46:16;34.57;;;23.20;;
9288;SDS011;4683;50.864;12.086;2023-02-08T05:48:44;35.23;;;22.90;;
9288;SDS011;4683;50.864;12.086;2023-02-08T05:51:12;37.57;;;24.70;;
9288;SDS011;4683;50.864;12.086;2023-02-08T05:53:46;42.23;;;25.60;;
9288;SDS011;4683;50.864;12.086;2023-02-08T05:56:15;40.70;;;26.27;;
9288;SDS011;4683;50.864;12.086;2023-02-08T05:58:43;39.47;;;26.03;;
9288;SDS011;4683;50.864;12.086;2023-02-08T06:01:12;39.50;;;25.37;;
9288;SDS011;4683;50.864;12.086;2023-02-08T06:03:41;37.97;;;25.20;;
9288;SDS011;4683;50.864;12.086;2023-02-08T06:06:09;40.40;;;24.10;;
9288;SDS011;4683;50.864;12.086;2023-02-08T06:08:37;35.87;;;24.33;;
9288;SDS011;4683;50.864;12.086;2023-02-08T06:11:08;42.73;;;27.47;;
9288;SDS011;4683;50.864;12.086;2023-02-08T06:13:36;55.23;;;33.83;;
9288;SDS011;4683;50.864;12.086;2023-02-08T06:16:05;45.23;;;30.50;;
9288;SDS011;4683;50.864;12.086;2023-02-08T06:18:37;59.27;;;25.37;;
9288;SDS011;4683;50.864;12.086;2023-02-08T06:21:05;38.53;;;23.20;;
9288;SDS011;4683;50.864;12.086;2023-02-08T06:23:34;34.77;;;23.37;;
9288;SDS011;4683;50.864;12.086;2023-02-08T06:26:03;40.40;;;25.40;;
9288;SDS011;4683;50.864;12.086;2023-02-08T06:28:33;38.03;;;24.10;;
9288;SDS011;4683;50.864;12.086;2023-02-08T06:31:02;36.73;;;24.17;;
9288;SDS011;4683;50.864;12.086;2023-02-08T06:33:30;40.57;;;25.77;;
9288;SDS011;4683;50.864;12.086;2023-02-08T06:35:59;42.00;;;27.23;;
9288;SDS011;4683;50.864;12.086;2023-02-08T06:38:28;40.83;;;26.83;;
9288;SDS011;4683;50.864;12.086;2023-02-08T06:40:56;37.70;;;25.13;;
9288;SDS011;4683;50.864;12.086;2023-02-08T06:43:24;36.60;;;24.90;;
9288;SDS011;4683;50.864;12.086;2023-02-08T06:45:55;32.20;;;23.23;;
9288;SDS011;4683;50.864;12.086;2023-02-08T06:48:23;38.67;;;24.60;;
9288;SDS011;4683;50.864;12.086;2023-02-08T06:50:52;37.67;;;25.20;;
9288;SDS011;4683;50.864;12.086;2023-02-08T06:53:20;35.60;;;23.37;;
9288;SDS011;4683;50.864;12.086;2023-02-08T06:55:49;34.53;;;24.10;;
9288;SDS011;4683;50.864;12.086;2023-02-08T06:58:17;39.33;;;24.70;;
9288;SDS011;4683;50.864;12.086;2023-02-08T07:00:46;41.47;;;27.10;;
9288;SDS011;4683;50.864;12.086;2023-02-08T07:03:16;48.53;;;30.03;;
9288;SDS011;4683;50.864;12.086;2023-02-08T07:05:45;65.30;;;39.80;;
9288;SDS011;4683;50.864;12.086;2023-02-08T07:08:13;59.47;;;36.80;;
9288;SDS011;4683;50.864;12.086;2023-02-08T07:10:42;46.23;;;30.37;;
9288;SDS011;4683;50.864;12.086;2023-02-08T07:13:11;37.93;;;25.30;;
9288;SDS011;4683;50.864;12.086;2023-02-08T07:15:39;43.63;;;26.60;;
9288;SDS011;4683;50.864;12.086;2023-02-08T07:18:08;46.13;;;30.87;;
9288;SDS011;4683;50.864;12.086;2023-02-08T07:20:38;44.73;;;29.10;;
9288;SDS011;4683;50.864;12.086;2023-02-08T07:23:07;45.30;;;29.43;;
9288;SDS011;4683;50.864;12.086;2023-02-08T07:25:35;49.40;;;29.17;;
9288;SDS011;4683;50.864;12.086;2023-02-08T07:28:24;46.17;;;29.90;;
9288;SDS011;4683;50.864;12.086;2023-02-08T07:30:52;39.23;;;26.93;;
9288;SDS011;4683;50.864;12.086;2023-02-08T07:33:22;40.53;;;26.27;;
9288;SDS011;4683;50.864;12.086;2023-02-08T07:35:54;39.50;;;25.07;;
9288;SDS011;4683;50.864;12.086;2023-02-08T07:38:22;46.57;;;25.13;;
9288;SDS011;4683;50.864;12.086;2023-02-08T07:40:51;43.67;;;25.80;;
9288;SDS011;4683;50.864;12.086;2023-02-08T07:43:27;44.83;;;27.53;;
9288;SDS011;4683;50.864;12.086;2023-02-08T07:45:57;41.93;;;25.17;;
9288;SDS011;4683;50.864;12.086;2023-02-08T07:48:25;41.57;;;25.37;;
9288;SDS011;4683;50.864;12.086;2023-02-08T07:50:55;38.30;;;25.27;;
9288;SDS011;4683;50.864;12.086;2023-02-08T07:53:24;40.07;;;25.67;;
9288;SDS011;4683;50.864;12.086;2023-02-08T07:55:52;39.90;;;25.33;;
9288;SDS011;4683;50.864;12.086;2023-02-08T07:58:20;40.63;;;25.43;;
9288;SDS011;4683;50.864;12.086;2023-02-08T08:00:49;38.07;;;25.30;;
9288;SDS011;4683;50.864;12.086;2023-02-08T08:03:18;43.33;;;25.93;;
9288;SDS011;4683;50.864;12.086;2023-02-08T08:05:47;42.70;;;25.33;;
9288;SDS011;4683;50.864;12.086;2023-02-08T08:08:20;37.53;;;23.97;;
9288;SDS011;4683;50.864;12.086;2023-02-08T08:10:49;54.97;;;32.70;;
9288;SDS011;4683;50.864;12.086;2023-02-08T08:13:18;43.87;;;24.90;;
9288;SDS011;4683;50.864;12.086;2023-02-08T08:15:46;43.40;;;27.03;;
9288;SDS011;4683;50.864;12.086;2023-02-08T08:18:14;37.23;;;25.10;;
9288;SDS011;4683;50.864;12.086;2023-02-08T08:21:01;33.73;;;22.97;;
9288;SDS011;4683;50.864;12.086;2023-02-08T08:23:32;33.33;;;24.00;;
9288;SDS011;4683;50.864;12.086;2023-02-08T08:26:05;35.70;;;24.87;;
9288;SDS011;4683;50.864;12.086;2023-02-08T08:28:58;34.80;;;23.37;;
9288;SDS011;4683;50.864;12.086;2023-02-08T08:31:29;37.27;;;25.73;;
9288;SDS011;4683;50.864;12.086;2023-02-08T08:33:57;35.37;;;23.33;;
9288;SDS011;4683;50.864;12.086;2023-02-08T08:36:29;36.63;;;24.30;;
9288;SDS011;4683;50.864;12.086;2023-02-08T08:39:00;37.97;;;23.13;;
9288;SDS011;4683;50.864;12.086;2023-02-08T08:41:29;34.60;;;23.47;;
9288;SDS011;4683;50.864;12.086;2023-02-08T08:43:57;38.97;;;25.60;;
9288;SDS011;4683;50.864;12.086;2023-02-08T08:46:26;34.17;;;23.50;;
9288;SDS011;4683;50.864;12.086;2023-02-08T08:48:55;38.37;;;25.23;;
9288;SDS011;4683;50.864;12.086;2023-02-08T08:51:24;39.07;;;23.47;;
9288;SDS011;4683;50.864;12.086;2023-02-08T08:53:53;36.50;;;24.50;;
9288;SDS011;4683;50.864;12.086;2023-02-08T08:56:23;37.27;;;24.73;;
9288;SDS011;4683;50.864;12.086;2023-02-08T08:58:54;33.80;;;23.40;;
9288;SDS011;4683;50.864;12.086;2023-02-08T09:01:23;36.70;;;24.00;;
9288;SDS011;4683;50.864;12.086;2023-02-08T09:03:52;35.30;;;23.90;;
9288;SDS011;4683;50.864;12.086;2023-02-08T09:06:21;35.50;;;21.93;;
9288;SDS011;4683;50.864;12.086;2023-02-08T09:08:49;38.13;;;24.63;;
9288;SDS011;4683;50.864;12.086;2023-02-08T09:11:18;33.70;;;21.60;;
9288;SDS011;4683;50.864;12.086;2023-02-08T09:13:48;37.50;;;22.43;;
9288;SDS011;4683;50.864;12.086;2023-02-08T09:16:21;36.10;;;23.83;;
9288;SDS011;4683;50.864;12.086;2023-02-08T09:18:51;35.07;;;22.97;;
9288;SDS011;4683;50.864;12.086;2023-02-08T09:21:21;39.17;;;21.43;;
9288;SDS011;4683;50.864;12.086;2023-02-08T09:23:51;31.13;;;21.67;;
9288;SDS011;4683;50.864;12.086;2023-02-08T09:26:19;33.13;;;21.50;;
9288;SDS011;4683;50.864;12.086;2023-02-08T09:28:49;31.57;;;20.13;;
9288;SDS011;4683;50.864;12.086;2023-02-08T09:31:18;27.93;;;19.37;;
9288;SDS011;4683;50.864;12.086;2023-02-08T09:33:59;31.70;;;21.23;;
9288;SDS011;4683;50.864;12.086;2023-02-08T09:36:28;34.17;;;21.73;;
9288;SDS011;4683;50.864;12.086;2023-02-08T09:39:01;29.57;;;18.30;;
9288;SDS011;4683;50.864;12.086;2023-02-08T09:41:38;32.80;;;21.83;;
9288;SDS011;4683;50.864;12.086;2023-02-08T09:44:59;31.23;;;20.10;;
9288;SDS011;4683;50.864;12.086;2023-02-08T09:48:12;30.43;;;18.37;;
9288;SDS011;4683;50.864;12.086;2023-02-08T09:50:49;31.60;;;18.63;;
9288;SDS011;4683;50.864;12.086;2023-02-08T09:53:27;33.90;;;20.97;;
9288;SDS011;4683;50.864;12.086;2023-02-08T09:56:04;30.73;;;19.83;;
9288;SDS011;4683;50.864;12.086;2023-02-08T09:58:38;30.97;;;19.67;;
9288;SDS011;4683;50.864;12.086;2023-02-08T10:01:14;26.63;;;18.50;;
9288;SDS011;4683;50.864;12.086;2023-02-08T10:03:47;30.17;;;17.73;;
9288;SDS011;4683;50.864;12.086;2023-02-08T10:06:22;27.87;;;19.10;;
9288;SDS011;4683;50.864;12.086;2023-02-08T10:09:06;29.27;;;18.83;;
9288;SDS011;4683;50.864;12.086;2023-02-08T10:11:43;30.43;;;18.30;;
9288;SDS011;4683;50.864;12.086;2023-02-08T10:14:31;26.30;;;17.43;;
9288;SDS011;4683;50.864;12.086;2023-02-08T10:17:26;39.73;;;19.30;;
9288;SDS011;4683;50.864;12.086;2023-02-08T10:20:36;29.03;;;17.50;;
9288;SDS011;4683;50.864;12.086;2023-02-08T10:23:27;28.00;;;18.80;;
9288;SDS011;4683;50.864;12.086;2023-02-08T10:26:13;31.43;;;18.50;;
9288;SDS011;4683;50.864;12.086;2023-02-08T10:28:56;24.23;;;18.00;;
9288;SDS011;4683;50.864;12.086;2023-02-08T10:31:57;25.47;;;17.00;;
9288;SDS011;4683;50.864;12.086;2023-02-08T10:34:44;27.50;;;18.20;;
9288;SDS011;4683;50.864;12.086;2023-02-08T10:37:16;24.90;;;15.33;;
9288;SDS011;4683;50.864;12.086;2023-02-08T10:39:47;26.07;;;17.33;;
9288;SDS011;4683;50.864;12.086;2023-02-08T10:42:17;27.83;;;19.03;;
9288;SDS011;4683;50.864;12.086;2023-02-08T10:44:56;31.00;;;18.13;;
9288;SDS011;4683;50.864;12.086;2023-02-08T10:47:38;30.37;;;20.63;;
9288;SDS011;4683;50.864;12.086;2023-02-08T10:50:17;22.37;;;17.37;;
9288;SDS011;4683;50.864;12.086;2023-02-08T10:52:52;24.27;;;16.27;;
9288;SDS011;4683;50.864;12.086;2023-02-08T10:55:21;25.43;;;15.90;;
9288;SDS011;4683;50.864;12.086;2023-02-08T10:57:49;25.00;;;15.93;;
9288;SDS011;4683;50.864;12.086;2023-02-08T11:00:26;27.13;;;16.20;;
9288;SDS011;4683;50.864;12.086;2023-02-08T11:02:58;21.20;;;15.10;;
9288;SDS011;4683;50.864;12.086;2023-02-08T11:05:42;21.87;;;14.77;;
9288;SDS011;4683;50.864;12.086;2023-02-08T11:08:12;21.97;;;15.13;;
9288;SDS011;4683;50.864;12.086;2023-02-08T11:10:45;21.40;;;15.10;;
9288;SDS011;4683;50.864;12.086;2023-02-08T11:13:25;21.23;;;14.33;;
9288;SDS011;4683;50.864;12.086;2023-02-08T11:16:03;24.30;;;15.70;;
9288;SDS011;4683;50.864;12.086;2023-02-08T11:18:55;23.90;;;15.13;;
9288;SDS011;4683;50.864;12.086;2023-02-08T11:21:30;18.23;;;14.57;;
9288;SDS011;4683;50.864;12.086;2023-02-08T11:24:18;22.47;;;15.53;;
9288;SDS011;4683;50.864;12.086;2023-02-08T11:26:56;13.27;;;9.27;;
9288;SDS011;4683;50.864;12.086;2023-02-08T11:29:28;16.77;;;13.47;;
9288;SDS011;4683;50.864;12.086;2023-02-08T11:32:13;20.87;;;14.00;;
9288;SDS011;4683;50.864;12.086;2023-02-08T11:34:46;20.10;;;14.40;;
9288;SDS011;4683;50.864;12.086;2023-02-08T11:37:16;19.03;;;14.23;;
9288;SDS011;4683;50.864;12.086;2023-02-08T11:39:51;19.83;;;13.50;;
9288;SDS011;4683;50.864;12.086;2023-02-08T11:42:22;23.50;;;14.33;;
9288;SDS011;4683;50.864;12.086;2023-02-08T11:44:55;21.47;;;14.17;;
9288;SDS011;4683;50.864;12.086;2023-02-08T11:47:27;21.03;;;14.87;;
9288;SDS011;4683;50.864;12.086;2023-02-08T11:49:59;18.23;;;14.67;;
9288;SDS011;4683;50.864;12.086;2023-02-08T11:52:32;18.83;;;13.77;;
9288;SDS011;4683;50.864;12.086;2023-02-08T11:55:12;18.70;;;13.87;;
9288;SDS011;4683;50.864;12.086;2023-02-08T11:57:50;19.17;;;13.43;;
9288;SDS011;4683;50.864;12.086;2023-02-08T12:00:22;18.07;;;13.27;;
9288;SDS011;4683;50.864;12.086;2023-02-08T12:02:53;17.77;;;13.13;;
9288;SDS011;4683;50.864;12.086;2023-02-08T12:05:47;18.37;;;14.03;;
9288;SDS011;4683;50.864;12.086;2023-02-08T12:08:29;16.50;;;12.77;;
9288;SDS011;4683;50.864;12.086;2023-02-08T12:11:07;23.33;;;14.93;;
9288;SDS011;4683;50.864;12.086;2023-02-08T12:13:56;18.23;;;12.80;;
9288;SDS011;4683;50.864;12.086;2023-02-08T12:17:07;15.53;;;12.00;;
9288;SDS011;4683;50.864;12.086;2023-02-08T12:20:28;19.70;;;13.30;;
9288;SDS011;4683;50.864;12.086;2023-02-08T12:23:21;16.60;;;13.10;;
9288;SDS011;4683;50.864;12.086;2023-02-08T12:26:22;19.43;;;10.43;;
9288;SDS011;4683;50.864;12.086;2023-02-08T12:29:17;17.53;;;12.97;;
9288;SDS011;4683;50.864;12.086;2023-02-08T12:32:04;16.53;;;13.20;;
9288;SDS011;4683;50.864;12.086;2023-02-08T12:34:48;17.30;;;13.67;;
9288;SDS011;4683;50.864;12.086;2023-02-08T12:37:36;18.20;;;13.10;;
9288;SDS011;4683;50.864;12.086;2023-02-08T12:40:36;15.03;;;12.50;;
9288;SDS011;4683;50.864;12.086;2023-02-08T12:43:26;15.80;;;13.07;;
9288;SDS011;4683;50.864;12.086;2023-02-08T12:46:21;17.67;;;13.67;;
9288;SDS011;4683;50.864;12.086;2023-02-08T12:49:16;16.80;;;13.20;;
9288;SDS011;4683;50.864;12.086;2023-02-08T12:52:01;17.60;;;12.80;;
9288;SDS011;4683;50.864;12.086;2023-02-08T12:55:00;22.40;;;14.10;;
9288;SDS011;4683;50.864;12.086;2023-02-08T12:57:40;15.87;;;12.67;;
9288;SDS011;4683;50.864;12.086;2023-02-08T13:00:17;18.37;;;13.70;;
9288;SDS011;4683;50.864;12.086;2023-02-08T13:02:54;15.37;;;12.27;;
9288;SDS011;4683;50.864;12.086;2023-02-08T13:05:35;17.43;;;11.70;;
9288;SDS011;4683;50.864;12.086;2023-02-08T13:08:07;19.57;;;13.27;;
9288;SDS011;4683;50.864;12.086;2023-02-08T13:10:48;17.37;;;13.47;;
9288;SDS011;4683;50.864;12.086;2023-02-08T13:13:24;17.63;;;14.27;;
9288;SDS011;4683;50.864;12.086;2023-02-08T13:15:58;17.60;;;12.60;;
9288;SDS011;4683;50.864;12.086;2023-02-08T13:18:39;21.30;;;13.43;;
9288;SDS011;4683;50.864;12.086;2023-02-08T13:21:15;16.53;;;12.90;;
9288;SDS011;4683;50.864;12.086;2023-02-08T13:23:48;17.20;;;13.40;;
9288;SDS011;4683;50.864;12.086;2023-02-08T13:26:18;17.50;;;12.90;;
9288;SDS011;4683;50.864;12.086;2023-02-08T13:28:52;19.57;;;15.50;;
9288;SDS011;4683;50.864;12.086;2023-02-08T13:31:25;17.90;;;14.13;;
9288;SDS011;4683;50.864;12.086;2023-02-08T13:33:58;17.87;;;14.73;;
9288;SDS011;4683;50.864;12.086;2023-02-08T13:36:33;19.87;;;16.00;;
9288;SDS011;4683;50.864;12.086;2023-02-08T13:39:06;18.63;;;14.60;;
9288;SDS011;4683;50.864;12.086;2023-02-08T13:41:53;17.97;;;14.83;;
9288;SDS011;4683;50.864;12.086;2023-02-08T13:44:24;18.30;;;13.57;;
9288;SDS011;4683;50.864;12.086;2023-02-08T13:47:21;18.83;;;14.93;;
9288;SDS011;4683;50.864;12.086;2023-02-08T13:49:54;22.60;;;16.63;;
9288;SDS011;4683;50.864;12.086;2023-02-08T14:01:30;19.13;;;12.77;;
9288;SDS011;4683;50.864;12.086;2023-02-08T14:07:05;16.83;;;12.87;;
9288;SDS011;4683;50.864;12.086;2023-02-08T14:09:47;17.47;;;12.47;;
9288;SDS011;4683;50.864;12.086;2023-02-08T14:12:34;21.37;;;15.67;;
9288;SDS011;4683;50.864;12.086;2023-02-08T14:15:23;22.13;;;15.57;;
9288;SDS011;4683;50.864;12.086;2023-02-08T14:17:55;22.83;;;14.30;;
9288;SDS011;4683;50.864;12.086;2023-02-08T14:20:29;14.27;;;11.43;;
9288;SDS011;4683;50.864;12.086;2023-02-08T14:23:05;15.47;;;12.17;;
9288;SDS011;4683;50.864;12.086;2023-02-08T14:25:48;13.73;;;11.37;;
9288;SDS011;4683;50.864;12.086;2023-02-08T14:28:26;17.23;;;13.63;;
9288;SDS011;4683;50.864;12.086;2023-02-08T14:31:01;17.07;;;12.93;;
9288;SDS011;4683;50.864;12.086;2023-02-08T14:33:34;15.80;;;11.90;;
9288;SDS011;4683;50.864;12.086;2023-02-08T14:36:20;17.37;;;12.87;;
9288;SDS011;4683;50.864;12.086;2023-02-08T14:39:06;17.87;;;13.40;;
9288;SDS011;4683;50.864;12.086;2023-02-08T14:41:50;19.40;;;13.60;;
9288;SDS011;4683;50.864;12.086;2023-02-08T14:47:14;18.07;;;13.20;;
9288;SDS011;4683;50.864;12.086;2023-02-08T14:50:48;18.10;;;13.37;;
9288;SDS011;4683;50.864;12.086;2023-02-08T14:53:37;16.60;;;12.67;;
9288;SDS011;4683;50.864;12.086;2023-02-08T14:56:14;21.80;;;13.87;;
9288;SDS011;4683;50.864;12.086;2023-02-08T14:58:48;19.00;;;13.80;;
9288;SDS011;4683;50.864;12.086;2023-02-08T15:01:23;17.97;;;13.53;;
9288;SDS011;4683;50.864;12.086;2023-02-08T15:04:03;19.60;;;14.10;;
9288;SDS011;4683;50.864;12.086;2023-02-08T15:06:46;19.47;;;14.63;;
9288;SDS011;4683;50.864;12.086;2023-02-08T15:09:49;20.10;;;14.97;;
9288;SDS011;4683;50.864;12.086;2023-02-08T15:12:20;18.97;;;15.33;;
9288;SDS011;4683;50.864;12.086;2023-02-08T15:14:52;18.70;;;15.40;;
9288;SDS011;4683;50.864;12.086;2023-02-08T15:17:28;25.30;;;17.50;;
9288;SDS011;4683;50.864;12.086;2023-02-08T15:20:01;24.30;;;17.90;;
9288;SDS011;4683;50.864;12.086;2023-02-08T15:25:36;24.40;;;16.90;;
9288;SDS011;4683;50.864;12.086;2023-02-08T15:28:15;25.50;;;18.93;;
9288;SDS011;4683;50.864;12.086;2023-02-08T15:30:51;23.57;;;18.33;;
9288;SDS011;4683;50.864;12.086;2023-02-08T15:33:22;22.23;;;17.47;;
9288;SDS011;4683;50.864;12.086;2023-02-08T15:35:54;23.33;;;18.17;;
9288;SDS011;4683;50.864;12.086;2023-02-08T15:38:25;24.53;;;18.47;;
9288;SDS011;4683;50.864;12.086;2023-02-08T15:41:03;24.53;;;17.83;;
9288;SDS011;4683;50.864;12.086;2023-02-08T15:43:35;24.10;;;18.30;;
9288;SDS011;4683;50.864;12.086;2023-02-08T15:46:05;25.53;;;17.87;;
9288;SDS011;4683;50.864;12.086;2023-02-08T15:48:45;23.47;;;18.63;;